Inzhener Plavinskiy — UBFM — position and weather

sailwx.info

Track history (hours):
 
Tides and Currents Weather Stations Pressure Air Temp Water Temp Dewpoint Dewpoint Depression Visibility Wind Speed Wind Dir Waves Ship Positions

Inzhener Plavinskiy

Last reported at 2017-Oct-13 08:29 UTC. Time now 2017-Oct-22 06:29 UTC.
Position N 33°36' W 008°23'.
Warning: this ship's position is 8 days out of date.

Length 156 m; draft 7 m.

Type: Cargo ship. MMSI: 273388730.

Date/timePositionNaut miles runAvg speedWind from/ knotsBaromVisibWave heightAir tempDewpointWater temp
2017-Oct-13 08:29N 33°36' W 008°23'1 1.4
2017-Oct-13 07:55N 33°37' W 008°23'2 1.1
2017-Oct-13 06:26N 33°39' W 008°23'1 1.2
2017-Oct-13 05:58N 33°39' W 008°23'3 0.7
2017-Oct-13 01:57N 33°42' W 008°21'23 4.4
2017-Oct-12 20:49N 33°45' W 007°54'  
2017-Oct-08 02:41N 33°41' W 007°32'0 0.1
2017-Oct-08 02:26N 33°41' W 007°32'0 0.0
2017-Oct-08 01:50N 33°41' W 007°32'0 0.0
2017-Oct-08 01:29N 33°41' W 007°32'  
2017-Oct-03 20:20N 33°43' W 007°33'510.2
2017-Oct-03 19:52N 33°47' W 007°31'  
Track history (hours):
 
Tides and Currents Weather Stations Pressure Air Temp Water Temp Dewpoint Dewpoint Depression Visibility Wind Speed Wind Dir Waves Ship Positions

Inzhener Plavinskiy

Last reported at 2017-Oct-13 08:29 UTC. Time now 2017-Oct-22 06:29 UTC.
Position N 33°36' W 008°23'.
Warning: this ship's position is 8 days out of date.

Length 156 m; draft 7 m.

Type: Cargo ship. MMSI: 273388730.

Date/timePositionNaut miles runAvg speedWind from/ knotsBaromVisibWave heightAir tempDewpointWater temp
2017-Oct-13 08:29N 33°36' W 008°23'1 1.4
2017-Oct-13 07:55N 33°37' W 008°23'2 1.1
2017-Oct-13 06:26N 33°39' W 008°23'1 1.2
2017-Oct-13 05:58N 33°39' W 008°23'3 0.7
2017-Oct-13 01:57N 33°42' W 008°21'23 4.4
2017-Oct-12 20:49N 33°45' W 007°54'  
2017-Oct-08 02:41N 33°41' W 007°32'0 0.1
2017-Oct-08 02:26N 33°41' W 007°32'0 0.0
2017-Oct-08 01:50N 33°41' W 007°32'0 0.0
2017-Oct-08 01:29N 33°41' W 007°32'  
2017-Oct-03 20:20N 33°43' W 007°33'510.2
2017-Oct-03 19:52N 33°47' W 007°31'  

Dump ship's entire track history